Time;durP1;ratioP1;P1;durP2;ratioP2;P2;SDS_P1;SDS_P2;PMS_P1;PMS_P2;Temp;Humidity;BMP_temperature;BMP_pressure;BME280_temperature;BME280_humidity;BME280_pressure;Samples;Min_cycle;Max_cycle;Signal;HPM_P1;HPM_P2
2023/10/30 00:02:22;;;;;;;;;;;14.50;94.20;;;;;;5033950;28;19993;-60
2023/10/30 00:04:48;;;;;;;;;;;14.50;94.20;;;;;;5033997;28;20326;-63
2023/10/30 00:07:14;;;;;;;;;;;14.50;94.30;;;;;;5033738;28;20357;-66
2023/10/30 00:09:39;;;;;;;;;;;14.50;94.30;;;;;;5033693;28;20084;-65
2023/10/30 00:12:05;;;;;;;;;;;14.50;93.90;;;;;;5033582;28;19986;-65
2023/10/30 00:14:31;;;;;;;;;;;14.50;94.40;;;;;;5033691;28;19989;-65
2023/10/30 00:16:57;;;;;;;;;;;14.40;95.20;;;;;;5034012;28;20343;-62
2023/10/30 00:19:22;;;;;;;;;;;14.40;94.70;;;;;;5033599;28;20085;-65
2023/10/30 00:21:48;;;;;;;;;;;14.40;95.00;;;;;;5033599;28;20050;-63
2023/10/30 00:24:13;;;;;;;;;;;14.50;95.10;;;;;;5033454;28;19998;-64
2023/10/30 00:26:39;;;;;;;;;;;14.50;94.70;;;;;;5033499;28;20463;-64
2023/10/30 00:29:05;;;;;;;;;;;14.40;95.00;;;;;;5033509;28;20518;-66
2023/10/30 00:31:30;;;;;;;;;;;14.40;95.40;;;;;;5033790;28;19986;-62
2023/10/30 00:33:56;;;;;;;;;;;14.40;95.40;;;;;;5033390;28;19988;-63
2023/10/30 00:36:21;;;;;;;;;;;14.40;96.00;;;;;;5033721;28;19986;-62
2023/10/30 00:38:47;;;;;;;;;;;14.40;96.20;;;;;;5034023;28;19998;-61
2023/10/30 00:41:12;;;;;;;;;;;14.40;95.70;;;;;;5033409;28;20488;-64
2023/10/30 00:43:38;;;;;;;;;;;14.40;95.50;;;;;;5033594;28;20444;-63
2023/10/30 00:46:06;;;;;;;;;;;14.50;95.60;;;;;;5033443;28;19981;-66
2023/10/30 00:48:35;;;;;;;;;;;14.50;95.30;;;;;;5033453;28;20432;-64
2023/10/30 00:51:01;;;;;;;;;;;14.50;95.10;;;;;;5033292;28;19990;-64
2023/10/30 00:53:26;;;;;;;;;;;14.50;95.00;;;;;;5033388;28;19988;-62
2023/10/30 00:55:52;;;;;;;;;;;14.50;95.30;;;;;;5032913;28;20025;-65
2023/10/30 00:58:17;;;;;;;;;;;14.40;95.20;;;;;;5033521;28;20088;-66
2023/10/30 01:00:43;;;;;;;;;;;14.40;95.30;;;;;;5033284;28;20033;-65
2023/10/30 01:03:09;;;;;;;;;;;14.40;95.30;;;;;;5033167;28;19986;-64
2023/10/30 01:05:34;;;;;;;;;;;14.40;95.30;;;;;;5033229;28;19993;-62
2023/10/30 01:08:00;;;;;;;;;;;14.40;95.10;;;;;;5033157;28;20456;-62
2023/10/30 01:10:26;;;;;;;;;;;14.40;95.40;;;;;;5033234;28;19986;-63
2023/10/30 01:12:51;;;;;;;;;;;14.40;95.00;;;;;;5036344;28;20464;-61
2023/10/30 01:15:17;;;;;;;;;;;14.30;95.10;;;;;;5037052;28;19983;-65
2023/10/30 01:17:43;;;;;;;;;;;14.30;95.10;;;;;;5036832;28;19981;-62
2023/10/30 01:20:08;;;;;;;;;;;14.30;95.30;;;;;;5036505;28;19989;-65
2023/10/30 01:22:34;;;;;;;;;;;14.30;94.90;;;;;;5036674;28;19983;-64
2023/10/30 01:24:59;;;;;;;;;;;14.20;94.50;;;;;;5036817;28;19996;-64
2023/10/30 01:27:25;;;;;;;;;;;14.20;94.40;;;;;;5036754;28;20068;-64
2023/10/30 01:29:51;;;;;;;;;;;14.20;94.20;;;;;;5036578;28;19982;-66
2023/10/30 01:32:16;;;;;;;;;;;14.10;94.60;;;;;;5036608;28;20356;-62
2023/10/30 01:34:44;;;;;;;;;;;14.00;95.30;;;;;;5036545;28;20072;-65
2023/10/30 01:37:09;;;;;;;;;;;13.90;95.80;;;;;;5036381;28;20464;-66
2023/10/30 01:39:36;;;;;;;;;;;13.90;95.40;;;;;;5036393;28;20033;-64
2023/10/30 01:42:02;;;;;;;;;;;13.90;95.50;;;;;;5036495;28;20441;-62
2023/10/30 01:44:27;;;;;;;;;;;13.90;95.90;;;;;;5036293;28;19983;-64
2023/10/30 01:46:53;;;;;;;;;;;13.90;96.50;;;;;;5036367;28;19982;-62
2023/10/30 01:49:19;;;;;;;;;;;13.80;96.00;;;;;;5036290;28;19989;-63
2023/10/30 01:51:45;;;;;;;;;;;13.90;96.00;;;;;;5036521;28;19993;-63
2023/10/30 01:54:10;;;;;;;;;;;13.90;95.80;;;;;;5036004;28;19986;-61
2023/10/30 01:56:36;;;;;;;;;;;13.80;95.70;;;;;;5036281;28;19982;-62
2023/10/30 01:59:01;;;;;;;;;;;13.70;95.60;;;;;;5036256;28;20095;-66
2023/10/30 02:01:28;;;;;;;;;;;13.70;95.60;;;;;;5036030;28;19994;-65
2023/10/30 02:03:55;;;;;;;;;;;13.60;95.40;;;;;;5036280;28;20403;-64
2023/10/30 02:06:21;;;;;;;;;;;13.60;96.00;;;;;;5036154;28;20076;-62
2023/10/30 02:08:46;;;;;;;;;;;13.50;97.10;;;;;;5035705;28;20230;-63
2023/10/30 02:11:12;;;;;;;;;;;13.50;97.20;;;;;;5035847;28;20467;-63
2023/10/30 02:13:37;;;;;;;;;;;13.50;96.80;;;;;;5035905;28;20026;-61
2023/10/30 02:16:03;;;;;;;;;;;13.50;97.00;;;;;;5036198;28;20401;-65
2023/10/30 02:18:29;;;;;;;;;;;13.50;97.20;;;;;;5035753;28;20333;-61
2023/10/30 02:20:54;;;;;;;;;;;13.50;97.40;;;;;;5035597;28;20057;-64
2023/10/30 02:23:20;;;;;;;;;;;13.50;97.50;;;;;;5034385;28;20032;-65
2023/10/30 02:25:45;;;;;;;;;;;13.50;97.50;;;;;;5035650;28;19982;-64
2023/10/30 02:28:11;;;;;;;;;;;13.50;98.10;;;;;;5035523;28;20061;-66
2023/10/30 02:30:36;;;;;;;;;;;13.40;97.80;;;;;;5035469;28;20502;-64
2023/10/30 02:33:02;;;;;;;;;;;13.40;97.60;;;;;;5035628;28;20459;-64
2023/10/30 02:35:28;;;;;;;;;;;13.40;97.50;;;;;;5035547;28;19982;-60
2023/10/30 02:37:54;;;;;;;;;;;13.40;97.90;;;;;;5034983;28;19998;-63
2023/10/30 02:40:19;;;;;;;;;;;13.40;97.40;;;;;;5035403;28;20415;-65
2023/10/30 02:42:45;;;;;;;;;;;13.40;97.50;;;;;;5035401;28;20051;-63
2023/10/30 02:45:10;;;;;;;;;;;13.40;97.70;;;;;;5035233;28;19989;-64
2023/10/30 02:47:36;;;;;;;;;;;13.40;98.10;;;;;;5035092;28;20100;-63
2023/10/30 02:50:02;;;;;;;;;;;13.40;97.80;;;;;;5035207;28;20069;-66
2023/10/30 02:52:31;;;;;;;;;;;13.40;97.20;;;;;;5035018;28;19982;-61
2023/10/30 02:54:56;;;;;;;;;;;13.40;97.20;;;;;;5035018;28;20025;-61
2023/10/30 02:57:22;;;;;;;;;;;13.40;97.10;;;;;;5035099;28;20064;-65
2023/10/30 02:59:47;;;;;;;;;;;13.30;96.90;;;;;;5035212;28;19992;-61
2023/10/30 03:02:13;;;;;;;;;;;13.30;96.70;;;;;;5034843;28;20032;-61
2023/10/30 03:04:38;;;;;;;;;;;13.30;96.70;;;;;;5034856;28;20077;-63
2023/10/30 03:07:04;;;;;;;;;;;13.30;97.20;;;;;;5034579;28;19982;-62
2023/10/30 03:09:31;;;;;;;;;;;13.20;97.80;;;;;;5034717;28;20093;-62
2023/10/30 03:11:56;;;;;;;;;;;13.10;98.80;;;;;;5034676;28;19992;-62
2023/10/30 03:14:22;;;;;;;;;;;13.10;99.10;;;;;;5034924;28;20072;-64
2023/10/30 03:16:47;;;;;;;;;;;13.10;98.30;;;;;;5034573;28;19989;-66
2023/10/30 03:19:13;;;;;;;;;;;13.10;97.90;;;;;;5034757;28;20077;-64
2023/10/30 03:21:39;;;;;;;;;;;13.10;98.20;;;;;;5034135;28;20029;-64
2023/10/30 03:24:04;;;;;;;;;;;13.10;97.90;;;;;;5034461;28;20028;-61
2023/10/30 03:26:30;;;;;;;;;;;13.20;97.40;;;;;;5034355;28;20444;-64
2023/10/30 03:28:56;;;;;;;;;;;13.20;96.90;;;;;;5034331;28;20013;-63
2023/10/30 03:31:22;;;;;;;;;;;13.20;96.60;;;;;;5034379;28;20390;-62
2023/10/30 03:33:48;;;;;;;;;;;13.20;96.40;;;;;;5034044;28;19982;-63
2023/10/30 03:36:20;;;;;;;;;;;13.10;96.50;;;;;;5034098;28;20004;-66
2023/10/30 03:38:45;;;;;;;;;;;13.20;96.50;;;;;;5034194;28;19998;-67
2023/10/30 03:41:11;;;;;;;;;;;13.20;96.20;;;;;;5033974;28;20089;-61
2023/10/30 03:43:37;;;;;;;;;;;13.10;96.20;;;;;;5034090;28;19986;-61
2023/10/30 03:46:02;;;;;;;;;;;13.10;96.40;;;;;;5034097;28;20028;-64
2023/10/30 03:48:28;;;;;;;;;;;13.10;96.60;;;;;;5033856;28;20005;-66
2023/10/30 03:50:53;;;;;;;;;;;13.10;96.50;;;;;;5034094;28;19992;-63
2023/10/30 03:53:19;;;;;;;;;;;13.00;96.60;;;;;;5033915;28;19986;-62
2023/10/30 03:55:44;;;;;;;;;;;12.90;96.90;;;;;;5033911;28;20025;-62
2023/10/30 03:58:10;;;;;;;;;;;12.90;97.30;;;;;;5033889;28;19994;-65
2023/10/30 04:00:35;;;;;;;;;;;12.90;97.30;;;;;;5034429;28;20463;-62
2023/10/30 04:03:01;;;;;;;;;;;12.80;98.00;;;;;;5033687;28;20021;-63
2023/10/30 04:05:26;;;;;;;;;;;12.80;97.90;;;;;;5033992;28;19986;-65
2023/10/30 04:07:52;;;;;;;;;;;12.80;97.40;;;;;;5033921;28;20448;-64
2023/10/30 04:10:18;;;;;;;;;;;12.80;97.30;;;;;;5034012;28;20073;-64
2023/10/30 04:12:44;;;;;;;;;;;12.70;97.40;;;;;;5033615;28;20503;-60
2023/10/30 04:15:10;;;;;;;;;;;12.60;97.80;;;;;;5033703;28;19986;-63
2023/10/30 04:17:35;;;;;;;;;;;12.60;97.90;;;;;;5033949;28;20002;-64
2023/10/30 04:20:01;;;;;;;;;;;12.60;97.80;;;;;;5033212;28;19982;-63
2023/10/30 04:22:26;;;;;;;;;;;12.60;97.90;;;;;;5033844;28;20500;-61
2023/10/30 04:24:52;;;;;;;;;;;12.60;98.40;;;;;;5033579;28;20391;-60
2023/10/30 04:27:18;;;;;;;;;;;12.60;98.40;;;;;;5033518;28;20006;-65
2023/10/30 04:29:44;;;;;;;;;;;12.60;97.90;;;;;;5033448;28;19986;-61
2023/10/30 04:32:09;;;;;;;;;;;12.60;97.60;;;;;;5033481;28;19982;-64
2023/10/30 04:34:35;;;;;;;;;;;12.70;97.80;;;;;;5033750;28;19986;-65
2023/10/30 04:37:00;;;;;;;;;;;12.70;97.40;;;;;;5033354;28;19998;-63
2023/10/30 04:39:26;;;;;;;;;;;12.60;97.70;;;;;;5033457;28;20344;-64
2023/10/30 04:41:53;;;;;;;;;;;12.60;98.20;;;;;;5033643;28;20396;-66
2023/10/30 04:44:19;;;;;;;;;;;12.70;97.90;;;;;;5033385;28;20468;-62
2023/10/30 04:46:44;;;;;;;;;;;12.70;97.50;;;;;;5034790;28;19986;-65
2023/10/30 04:49:10;;;;;;;;;;;12.60;97.30;;;;;;5037351;28;20017;-64
2023/10/30 04:51:36;;;;;;;;;;;12.60;97.20;;;;;;5037231;28;20041;-62
2023/10/30 04:54:01;;;;;;;;;;;12.60;97.70;;;;;;5037449;28;20049;-62
2023/10/30 04:56:27;;;;;;;;;;;12.50;97.60;;;;;;5037267;28;20353;-63
2023/10/30 04:58:53;;;;;;;;;;;12.50;98.10;;;;;;5037058;28;19987;-66
2023/10/30 05:01:19;;;;;;;;;;;12.40;98.50;;;;;;5037006;28;19983;-61
2023/10/30 05:03:44;;;;;;;;;;;12.40;98.60;;;;;;5037364;28;19992;-64
2023/10/30 05:06:10;;;;;;;;;;;12.40;98.20;;;;;;5037346;28;20499;-64
2023/10/30 05:08:36;;;;;;;;;;;12.50;98.40;;;;;;5036771;28;20016;-64
2023/10/30 05:11:02;;;;;;;;;;;12.50;98.10;;;;;;5037088;28;20032;-65
2023/10/30 05:13:28;;;;;;;;;;;12.50;97.90;;;;;;5036824;28;19986;-65
2023/10/30 05:15:56;;;;;;;;;;;12.60;97.50;;;;;;5036660;28;19990;-64
2023/10/30 05:18:24;;;;;;;;;;;12.50;97.60;;;;;;5036966;28;20452;-63
2023/10/30 05:20:50;;;;;;;;;;;12.50;97.50;;;;;;5036707;28;20056;-60
2023/10/30 05:23:16;;;;;;;;;;;12.50;97.80;;;;;;5036603;28;20034;-63
2023/10/30 05:25:42;;;;;;;;;;;12.50;97.70;;;;;;5037005;28;19987;-62
2023/10/30 05:28:07;;;;;;;;;;;12.50;97.30;;;;;;5036525;28;20014;-65
2023/10/30 05:30:35;;;;;;;;;;;12.50;97.80;;;;;;5036443;28;20044;-65
2023/10/30 05:33:01;;;;;;;;;;;12.60;97.60;;;;;;5036564;28;19986;-66
2023/10/30 05:35:27;;;;;;;;;;;12.70;97.30;;;;;;5036439;28;19986;-61
2023/10/30 05:37:53;;;;;;;;;;;12.70;98.10;;;;;;5036254;28;20009;-66
2023/10/30 05:40:20;;;;;;;;;;;12.70;98.70;;;;;;5036500;28;20025;-62
2023/10/30 05:42:46;;;;;;;;;;;12.70;98.10;;;;;;5036560;28;19982;-65
2023/10/30 05:45:11;;;;;;;;;;;12.80;97.50;;;;;;5036470;28;20417;-63
2023/10/30 05:47:37;;;;;;;;;;;12.80;97.80;;;;;;5036282;28;20006;-65
2023/10/30 05:50:03;;;;;;;;;;;12.80;98.30;;;;;;5036377;28;20093;-65
2023/10/30 05:52:29;;;;;;;;;;;12.80;98.70;;;;;;5036253;28;20499;-62
2023/10/30 05:54:54;;;;;;;;;;;12.80;98.70;;;;;;5036134;28;20021;-65
2023/10/30 05:57:20;;;;;;;;;;;13.00;98.20;;;;;;5035779;28;20033;-63
2023/10/30 05:59:45;;;;;;;;;;;13.10;97.60;;;;;;5035283;28;20428;-63
2023/10/30 06:02:11;;;;;;;;;;;13.20;97.50;;;;;;5035939;28;19983;-66
2023/10/30 06:04:37;;;;;;;;;;;13.30;97.00;;;;;;5036011;28;19982;-64
2023/10/30 06:07:02;;;;;;;;;;;13.40;97.10;;;;;;5035809;28;19986;-64
2023/10/30 06:09:28;;;;;;;;;;;13.50;96.50;;;;;;5034699;28;20036;-63
2023/10/30 06:11:54;;;;;;;;;;;13.50;96.40;;;;;;5035057;28;20088;-64
2023/10/30 06:14:19;;;;;;;;;;;13.70;96.70;;;;;;5016920;28;19994;-62
2023/10/30 06:16:45;;;;;;;;;;;13.80;96.40;;;;;;5035713;28;20012;-63
2023/10/30 06:19:11;;;;;;;;;;;13.90;96.90;;;;;;5035873;28;20348;-63
2023/10/30 06:21:39;;;;;;;;;;;14.00;96.30;;;;;;5035424;28;20114;-64
2023/10/30 06:24:07;;;;;;;;;;;14.10;95.70;;;;;;5035751;28;20360;-65
2023/10/30 06:26:32;;;;;;;;;;;14.30;94.80;;;;;;5017096;28;20022;-65
2023/10/30 06:28:58;;;;;;;;;;;14.40;94.00;;;;;;5035192;28;20111;-65
2023/10/30 06:31:24;;;;;;;;;;;14.50;93.40;;;;;;5035320;28;20017;-65
2023/10/30 06:33:49;;;;;;;;;;;14.50;93.40;;;;;;5035245;28;19982;-63
2023/10/30 06:36:15;;;;;;;;;;;14.60;92.20;;;;;;5035452;28;20088;-63
2023/10/30 06:38:40;;;;;;;;;;;14.60;92.30;;;;;;5035166;28;20005;-66
2023/10/30 06:41:07;;;;;;;;;;;14.70;92.80;;;;;;5035527;28;19986;-63
2023/10/30 06:43:33;;;;;;;;;;;14.80;91.70;;;;;;5035092;28;20463;-64
2023/10/30 06:46:02;;;;;;;;;;;14.90;92.00;;;;;;5035250;28;20029;-63
2023/10/30 06:48:27;;;;;;;;;;;15.00;91.80;;;;;;5034866;28;20006;-63
2023/10/30 06:50:54;;;;;;;;;;;15.20;91.30;;;;;;5035244;28;20409;-64
2023/10/30 06:53:20;;;;;;;;;;;15.30;91.10;;;;;;5034972;28;20534;-66
2023/10/30 06:55:45;;;;;;;;;;;15.40;91.50;;;;;;5034140;28;19986;-63
2023/10/30 06:58:11;;;;;;;;;;;15.60;90.60;;;;;;5034474;28;20437;-66
2023/10/30 07:00:37;;;;;;;;;;;15.90;89.40;;;;;;5034828;28;19982;-64
2023/10/30 07:03:02;;;;;;;;;;;16.20;84.70;;;;;;5034709;28;19986;-65
2023/10/30 07:05:28;;;;;;;;;;;17.50;80.10;;;;;;5034036;28;20041;-63
2023/10/30 07:07:54;;;;;;;;;;;18.80;72.00;;;;;;5034806;28;20375;-64
2023/10/30 07:10:19;;;;;;;;;;;20.80;62.30;;;;;;5034152;28;20052;-64
2023/10/30 07:12:45;;;;;;;;;;;22.10;54.10;;;;;;5034671;28;20093;-65
2023/10/30 07:15:10;;;;;;;;;;;22.30;51.10;;;;;;5033704;28;19982;-64
2023/10/30 07:17:36;;;;;;;;;;;22.10;51.60;;;;;;5025579;28;20001;-66
2023/10/30 07:20:03;;;;;;;;;;;22.00;51.60;;;;;;5029210;28;19986;-62
2023/10/30 07:22:29;;;;;;;;;;;22.10;51.20;;;;;;5032943;28;19986;-63
2023/10/30 07:24:56;;;;;;;;;;;22.10;50.60;;;;;;5032695;28;19994;-64
2023/10/30 07:27:22;;;;;;;;;;;22.00;50.80;;;;;;5032958;28;20423;-65
2023/10/30 07:29:47;;;;;;;;;;;21.70;50.50;;;;;;5034430;28;20073;-65
2023/10/30 07:32:13;;;;;;;;;;;21.30;51.20;;;;;;5033165;28;20385;-63
2023/10/30 07:34:40;;;;;;;;;;;20.80;53.20;;;;;;5033826;28;20385;-63
2023/10/30 07:37:05;;;;;;;;;;;20.50;53.30;;;;;;5033219;28;20018;-65
2023/10/30 07:39:31;;;;;;;;;;;20.60;55.50;;;;;;5033345;28;19986;-65
2023/10/30 07:41:57;;;;;;;;;;;21.00;53.90;;;;;;5032960;28;19982;-65
2023/10/30 07:44:22;;;;;;;;;;;21.40;52.30;;;;;;5033913;28;19982;-65
2023/10/30 07:46:48;;;;;;;;;;;21.40;52.80;;;;;;5034013;28;19986;-61
2023/10/30 07:49:13;;;;;;;;;;;21.60;51.50;;;;;;5031989;28;20010;-64
2023/10/30 07:51:39;;;;;;;;;;;22.10;50.80;;;;;;5033155;28;19982;-65
2023/10/30 07:54:05;;;;;;;;;;;22.70;49.90;;;;;;5033738;28;20045;-65
2023/10/30 07:56:30;;;;;;;;;;;23.60;48.40;;;;;;5033925;28;19997;-63
2023/10/30 07:58:56;;;;;;;;;;;24.50;47.30;;;;;;5033711;28;20500;-67
2023/10/30 08:01:22;;;;;;;;;;;25.10;44.60;;;;;;5015955;28;20329;-67
2023/10/30 08:03:48;;;;;;;;;;;25.00;45.20;;;;;;5033399;28;20032;-63
2023/10/30 08:06:13;;;;;;;;;;;24.80;44.00;;;;;;5032930;28;19989;-64
2023/10/30 08:08:39;;;;;;;;;;;24.90;44.40;;;;;;5033773;28;20105;-61
2023/10/30 08:11:05;;;;;;;;;;;25.20;44.40;;;;;;5033906;28;20028;-63
2023/10/30 08:13:31;;;;;;;;;;;25.40;44.00;;;;;;5033855;28;20364;-61
2023/10/30 08:15:56;;;;;;;;;;;25.20;43.80;;;;;;5032628;28;19986;-65
2023/10/30 08:18:22;;;;;;;;;;;25.50;43.70;;;;;;5033160;28;20462;-67
2023/10/30 08:20:47;;;;;;;;;;;25.70;43.90;;;;;;5032909;28;20017;-65
2023/10/30 08:23:13;;;;;;;;;;;25.60;43.50;;;;;;5033061;28;20042;-62
2023/10/30 08:25:39;;;;;;;;;;;25.40;43.90;;;;;;5033073;28;19986;-60
2023/10/30 08:28:04;;;;;;;;;;;25.10;44.00;;;;;;5032792;28;20472;-61
2023/10/30 08:30:30;;;;;;;;;;;24.70;44.80;;;;;;5033034;28;20029;-62
2023/10/30 08:32:56;;;;;;;;;;;24.40;44.60;;;;;;5031696;28;20377;-64
2023/10/30 08:35:22;;;;;;;;;;;24.30;45.60;;;;;;5013759;28;19992;-61
2023/10/30 08:37:48;;;;;;;;;;;24.20;46.60;;;;;;5030628;28;20021;-62
2023/10/30 08:40:13;;;;;;;;;;;23.90;47.70;;;;;;5032168;28;19990;-62
2023/10/30 08:42:39;;;;;;;;;;;23.70;48.00;;;;;;5031104;28;19989;-65
2023/10/30 08:45:07;;;;;;;;;;;23.30;50.30;;;;;;5031920;28;20414;-65
2023/10/30 08:47:32;;;;;;;;;;;23.10;49.20;;;;;;5032896;28;20497;-63
2023/10/30 08:49:58;;;;;;;;;;;23.10;50.50;;;;;;5033116;28;20081;-58
2023/10/30 08:52:23;;;;;;;;;;;23.50;50.90;;;;;;5031566;28;20615;-62
2023/10/30 08:54:49;;;;;;;;;;;23.90;51.50;;;;;;5030008;28;20349;-65
2023/10/30 08:57:19;;;;;;;;;;;24.40;52.60;;;;;;5032836;28;20033;-61
2023/10/30 08:59:45;;;;;;;;;;;25.00;49.70;;;;;;5014102;28;20376;-61
2023/10/30 09:02:10;;;;;;;;;;;25.60;48.80;;;;;;5031639;28;19994;-65
2023/10/30 09:04:36;;;;;;;;;;;26.00;48.40;;;;;;5029626;28;20009;-64
2023/10/30 09:07:02;;;;;;;;;;;26.40;48.00;;;;;;5029499;28;20024;-62
2023/10/30 09:09:28;;;;;;;;;;;26.60;48.10;;;;;;5021692;28;19994;-64
2023/10/30 09:11:53;;;;;;;;;;;26.90;44.30;;;;;;5019230;28;19983;-58
2023/10/30 09:14:19;;;;;;;;;;;27.20;45.90;;;;;;5010487;28;19982;-65
2023/10/30 09:16:45;;;;;;;;;;;27.30;43.70;;;;;;5009863;28;19993;-60
2023/10/30 09:19:10;;;;;;;;;;;27.40;43.70;;;;;;5022820;28;20478;-61
2023/10/30 09:21:36;;;;;;;;;;;27.50;40.60;;;;;;5032278;28;20068;-61
2023/10/30 09:24:02;;;;;;;;;;;27.50;37.70;;;;;;5032542;28;19990;-60
2023/10/30 09:26:28;;;;;;;;;;;27.30;37.20;;;;;;5032179;28;19986;-63
2023/10/30 09:28:54;;;;;;;;;;;27.10;36.40;;;;;;5032860;28;20017;-60
2023/10/30 09:31:20;;;;;;;;;;;27.00;38.60;;;;;;5031721;28;20040;-61
2023/10/30 09:33:47;;;;;;;;;;;26.90;38.50;;;;;;5035252;28;20360;-66
2023/10/30 09:36:13;;;;;;;;;;;27.00;39.20;;;;;;5031343;28;20514;-62
2023/10/30 09:38:38;;;;;;;;;;;27.40;38.50;;;;;;5035831;28;20002;-66
2023/10/30 09:41:05;;;;;;;;;;;27.60;37.90;;;;;;5035883;28;19982;-64
2023/10/30 09:43:33;;;;;;;;;;;27.90;40.90;;;;;;5035129;28;19997;-62
2023/10/30 09:46:00;;;;;;;;;;;28.30;42.50;;;;;;5036182;28;20107;-61
2023/10/30 09:48:27;;;;;;;;;;;28.70;40.10;;;;;;5035102;28;20006;-62
2023/10/30 09:50:53;;;;;;;;;;;29.10;39.80;;;;;;5035007;28;19990;-64
2023/10/30 09:53:19;;;;;;;;;;;29.30;40.30;;;;;;5035076;28;20363;-63
2023/10/30 09:55:46;;;;;;;;;;;29.50;40.20;;;;;;5024739;28;19994;-63
2023/10/30 09:58:13;;;;;;;;;;;29.70;40.40;;;;;;5016411;28;20089;-62
2023/10/30 10:00:38;;;;;;;;;;;29.80;40.40;;;;;;5016160;28;19987;-64
2023/10/30 10:03:07;;;;;;;;;;;30.10;37.20;;;;;;5015295;28;19982;-64
2023/10/30 10:05:32;;;;;;;;;;;30.10;35.00;;;;;;5033726;28;20008;-66
2023/10/30 10:07:58;;;;;;;;;;;30.10;38.20;;;;;;5035993;28;20010;-64
2023/10/30 10:10:24;;;;;;;;;;;30.40;35.60;;;;;;5035786;28;19986;-63
2023/10/30 10:12:53;;;;;;;;;;;30.60;36.60;;;;;;5035750;28;20066;-60
2023/10/30 10:15:20;;;;;;;;;;;31.00;34.50;;;;;;5036097;28;19982;-62
2023/10/30 10:17:45;;;;;;;;;;;31.40;32.30;;;;;;5035550;28;20041;-64
2023/10/30 10:20:11;;;;;;;;;;;31.50;33.90;;;;;;5035023;28;19986;-64
2023/10/30 10:22:37;;;;;;;;;;;31.60;30.60;;;;;;5034746;28;20404;-64
2023/10/30 10:25:04;;;;;;;;;;;31.50;30.00;;;;;;5033067;28;20005;-62
2023/10/30 10:27:30;;;;;;;;;;;31.60;33.30;;;;;;5034305;28;20518;-63
2023/10/30 10:29:56;;;;;;;;;;;31.80;30.10;;;;;;5035424;28;19982;-65
2023/10/30 10:32:25;;;;;;;;;;;31.70;29.70;;;;;;5034908;28;20029;-64
2023/10/30 10:34:51;;;;;;;;;;;31.60;27.80;;;;;;5034813;28;19987;-65
2023/10/30 10:37:18;;;;;;;;;;;31.70;31.40;;;;;;5035087;28;20376;-62
2023/10/30 10:39:48;;;;;;;;;;;31.80;32.20;;;;;;5034050;28;19993;-64
2023/10/30 10:42:15;;;;;;;;;;;31.70;30.00;;;;;;5034944;28;19989;-65
2023/10/30 10:44:42;;;;;;;;;;;31.70;27.70;;;;;;5024763;28;19993;-66
2023/10/30 10:47:07;;;;;;;;;;;31.50;26.90;;;;;;5016967;28;20372;-62
2023/10/30 10:49:33;;;;;;;;;;;31.50;27.40;;;;;;5034245;28;19986;-68
2023/10/30 10:51:59;;;;;;;;;;;31.50;28.90;;;;;;5034643;28;19990;-64
2023/10/30 10:54:27;;;;;;;;;;;31.50;30.00;;;;;;5034196;28;20359;-63
2023/10/30 10:56:53;;;;;;;;;;;31.70;28.60;;;;;;5033725;28;19986;-63
2023/10/30 10:59:21;;;;;;;;;;;31.80;27.20;;;;;;5016200;28;19993;-66
2023/10/30 11:01:49;;;;;;;;;;;31.90;27.80;;;;;;5034074;28;19986;-64
2023/10/30 11:04:16;;;;;;;;;;;32.00;27.80;;;;;;5033967;28;19997;-62
2023/10/30 11:06:45;;;;;;;;;;;32.00;28.70;;;;;;5034186;28;20031;-63
2023/10/30 11:09:17;;;;;;;;;;;32.00;27.10;;;;;;5034159;28;20010;-66
2023/10/30 11:11:49;;;;;;;;;;;31.90;27.50;;;;;;5032400;28;19997;-62
2023/10/30 11:14:35;;;;;;;;;;;31.70;26.50;;;;;;5032707;28;20365;-67
2023/10/30 11:17:05;;;;;;;;;;;31.50;27.60;;;;;;5032729;28;19989;-64
2023/10/30 11:19:32;;;;;;;;;;;31.40;26.70;;;;;;5033372;28;19985;-62
2023/10/30 11:22:01;;;;;;;;;;;31.40;27.10;;;;;;5033523;28;20018;-65
2023/10/30 11:24:37;;;;;;;;;;;31.30;28.00;;;;;;5034132;28;20091;-63
2023/10/30 11:27:22;;;;;;;;;;;31.30;28.60;;;;;;5034254;28;20332;-65
2023/10/30 11:30:07;;;;;;;;;;;31.60;27.00;;;;;;5034234;28;20012;-59
2023/10/30 11:32:44;;;;;;;;;;;32.00;25.30;;;;;;5031975;28;20314;-61
2023/10/30 11:35:09;;;;;;;;;;;32.10;24.30;;;;;;5032162;28;20081;-61
2023/10/30 11:37:35;;;;;;;;;;;32.10;25.70;;;;;;5022531;28;20045;-60
2023/10/30 11:40:05;;;;;;;;;;;32.30;25.60;;;;;;5032375;28;20444;-66
2023/10/30 11:42:34;;;;;;;;;;;32.30;24.50;;;;;;5034263;28;19981;-62
2023/10/30 11:45:18;;;;;;;;;;;32.20;25.40;;;;;;5034143;28;19982;-63
2023/10/30 11:47:48;;;;;;;;;;;32.20;25.30;;;;;;5033883;28;20005;-62
2023/10/30 11:50:15;;;;;;;;;;;32.10;24.60;;;;;;5034100;28;20084;-61
2023/10/30 11:52:41;;;;;;;;;;;32.10;24.90;;;;;;5033984;28;20075;-65
2023/10/30 11:55:07;;;;;;;;;;;32.30;27.30;;;;;;5033726;28;20440;-66
2023/10/30 11:57:36;;;;;;;;;;;32.70;25.90;;;;;;5033124;28;20368;-66
2023/10/30 12:00:02;;;;;;;;;;;33.00;26.50;;;;;;5023281;28;19987;-67
2023/10/30 12:02:31;;;;;;;;;;;33.30;26.60;;;;;;5013454;28;19983;-69
2023/10/30 12:05:06;;;;;;;;;;;33.50;24.70;;;;;;5012460;28;19989;-65
2023/10/30 12:07:31;;;;;;;;;;;33.50;25.80;;;;;;5013163;28;20006;-61
2023/10/30 12:09:59;;;;;;;;;;;33.30;23.60;;;;;;5013997;28;20041;-62
2023/10/30 12:12:25;;;;;;;;;;;33.10;25.90;;;;;;5013101;28;19991;-62
2023/10/30 12:14:50;;;;;;;;;;;33.10;27.20;;;;;;5013814;28;19982;-63
2023/10/30 12:17:16;;;;;;;;;;;33.30;25.00;;;;;;5013634;28;19987;-61
2023/10/30 12:19:45;;;;;;;;;;;33.30;25.70;;;;;;4995440;28;20086;-61
2023/10/30 12:22:10;;;;;;;;;;;33.10;26.70;;;;;;5013618;28;20024;-65
2023/10/30 12:24:36;;;;;;;;;;;33.10;24.30;;;;;;5013862;28;20089;-66
2023/10/30 12:27:02;;;;;;;;;;;32.80;24.60;;;;;;5013228;28;19986;-62
2023/10/30 12:29:28;;;;;;;;;;;32.70;26.70;;;;;;5013555;28;20010;-65
2023/10/30 12:32:02;;;;;;;;;;;32.50;26.90;;;;;;5013329;28;19993;-64
2023/10/30 12:34:28;;;;;;;;;;;32.10;28.30;;;;;;5013603;28;20034;-66
2023/10/30 12:36:54;;;;;;;;;;;31.70;29.10;;;;;;5013247;28;20057;-64
2023/10/30 12:39:21;;;;;;;;;;;31.40;28.40;;;;;;5013649;28;19983;-61
2023/10/30 12:41:55;;;;;;;;;;;31.40;29.20;;;;;;5013540;28;20429;-64
2023/10/30 12:44:21;;;;;;;;;;;31.50;29.90;;;;;;5013740;28;19990;-63
2023/10/30 12:46:47;;;;;;;;;;;31.80;29.40;;;;;;5013264;28;19995;-65
2023/10/30 12:49:12;;;;;;;;;;;32.10;28.70;;;;;;5013482;28;20003;-64
2023/10/30 12:51:38;;;;;;;;;;;32.10;31.40;;;;;;5017720;28;19987;-67
2023/10/30 12:54:04;;;;;;;;;;;32.20;30.50;;;;;;5032416;28;20483;-60
2023/10/30 12:56:30;;;;;;;;;;;32.30;25.90;;;;;;5013178;28;19987;-62
2023/10/30 12:58:55;;;;;;;;;;;32.10;25.60;;;;;;5013469;28;19987;-65
2023/10/30 13:01:21;;;;;;;;;;;32.20;25.60;;;;;;5012954;28;20045;-60
2023/10/30 13:03:46;;;;;;;;;;;32.20;25.60;;;;;;5012263;28;19983;-66
2023/10/30 13:06:12;;;;;;;;;;;32.30;27.90;;;;;;5013232;28;20349;-65
2023/10/30 13:08:37;;;;;;;;;;;32.50;25.70;;;;;;5015363;28;20093;-65
2023/10/30 13:11:08;;;;;;;;;;;32.40;26.80;;;;;;5030420;28;19990;-64
2023/10/30 13:13:34;;;;;;;;;;;32.20;28.20;;;;;;5037104;28;19997;-65
2023/10/30 13:16:00;;;;;;;;;;;31.80;29.70;;;;;;5036164;28;20380;-65
2023/10/30 13:18:26;;;;;;;;;;;31.40;28.80;;;;;;5018072;28;20463;-65
2023/10/30 13:20:52;;;;;;;;;;;31.10;30.00;;;;;;5036732;28;20025;-64
2023/10/30 13:23:21;;;;;;;;;;;31.20;31.10;;;;;;5035689;28;19990;-63
2023/10/30 13:25:50;;;;;;;;;;;31.20;31.80;;;;;;5037018;28;20376;-62
2023/10/30 13:28:17;;;;;;;;;;;31.30;32.80;;;;;;5036705;28;20105;-62
2023/10/30 13:30:47;;;;;;;;;;;31.40;30.00;;;;;;5036421;28;19990;-61
2023/10/30 13:33:13;;;;;;;;;;;31.20;28.40;;;;;;5036705;28;19982;-66
2023/10/30 13:35:38;;;;;;;;;;;31.50;30.10;;;;;;5036532;28;20357;-63
2023/10/30 13:38:04;;;;;;;;;;;31.70;27.00;;;;;;5036474;28;20053;-62
2023/10/30 13:40:30;;;;;;;;;;;31.70;26.90;;;;;;5036528;28;19986;-64
2023/10/30 13:43:00;;;;;;;;;;;31.60;26.10;;;;;;5036309;28;20096;-66
2023/10/30 13:45:26;;;;;;;;;;;31.40;27.60;;;;;;5036210;28;19983;-61
2023/10/30 13:47:52;;;;;;;;;;;31.30;28.30;;;;;;5036616;28;20012;-63
2023/10/30 13:50:17;;;;;;;;;;;31.30;29.00;;;;;;5036265;28;20026;-62
2023/10/30 13:52:43;;;;;;;;;;;31.10;30.90;;;;;;5036262;28;19982;-62
2023/10/30 13:55:08;;;;;;;;;;;31.00;30.50;;;;;;5036352;28;19983;-65
2023/10/30 13:57:34;;;;;;;;;;;30.90;30.00;;;;;;5035967;28;19982;-62
2023/10/30 13:59:59;;;;;;;;;;;30.80;29.00;;;;;;5036152;28;19992;-60
2023/10/30 14:02:25;;;;;;;;;;;30.70;29.20;;;;;;5036230;28;19983;-63
2023/10/30 14:04:50;;;;;;;;;;;30.80;29.80;;;;;;5036064;28;20005;-63
2023/10/30 14:07:16;;;;;;;;;;;31.00;28.50;;;;;;5035903;28;19982;-62
2023/10/30 14:09:42;;;;;;;;;;;31.00;29.30;;;;;;5036125;28;19989;-65
2023/10/30 14:12:07;;;;;;;;;;;30.90;30.70;;;;;;5036233;28;19985;-63